Estación Meteorológica Peña el Pijo (Robertgarden) [ 11/12/18 21:21:34 CET ]

Fecha Hora Presion(HPa) Temp (°C) Humedad % Rocio (°C) Viento ( m/s) Direccion Lluvia 1Hora(mm) Lluvia 24H(mm) LLuvia Total(mm)
2018-Mar-26 01:02:02 1004.800 2.8 82 0.0       3.62 182.85
2018-Mar-26 02:01:47 1005.100 2.2 83 -0.4       3.62 182.85
2018-Mar-26 03:01:40 1005.400 0.9 83 -1.7       3.62 182.85
2018-Mar-26 04:08:03 1006.000 0.7 84 -1.7       3.10 182.85
2018-Mar-26 05:01:48 1006.300 1.3 85 -1.0       2.59 182.85
2018-Mar-26 06:01:39 1006.300 2.4 84 -0.1       2.07 182.85
2018-Mar-26 07:01:50 1007.000 2.0 84 -0.5       2.07 182.85
2018-Mar-26 08:01:54 1007.100 2.4 83 -0.2       1.55 182.85
2018-Mar-26 09:01:36 1008.100 3.7 82 0.9       0.51 182.85
2018-Mar-26 10:01:50 1008.700 7.4 74 3.1       0.51 182.85
2018-Mar-26 11:01:47 1009.100 8.2 61 1.1       0.51 182.85
2018-Mar-26 12:01:57 1009.400 11.8 49 1.4 1.8 E   0.51 182.85
2018-Mar-26 13:01:42 1010.000 11.6 48 0.9       0.51 182.85
2018-Mar-26 14:01:34 1010.100 11.3 50 1.3 2.1 NE   0.51 182.85
2018-Mar-26 15:01:17 1010.000 11.3 46 0.0       0.51 182.85
2018-Mar-26 16:01:44 1009.700 11.0 50 1.0 1.3 WNW   0.51 182.85
2018-Mar-26 17:01:46 1009.700 13.0 45 1.2       0.51 182.85
2018-Mar-26 18:01:51 1010.100 12.8 43 0.4       0.51 182.85
2018-Mar-26 19:01:56 1010.200 10.1 48 -0.4       0.51 182.85
2018-Mar-26 20:01:44 1010.800 9.5 48 -1.0       0.51 182.85
2018-Mar-26 21:01:44 1011.000 8.2 52 -1.1       0.51 182.85
2018-Mar-26 22:01:40 1011.800 5.4 62 -1.3         182.85
2018-Mar-26 23:01:43 1012.700 4.4 67 -1.2         182.85

Temperatura Máxima:13°    Temperatura Mínima:
Presión Máxima:1012.700 Hpa    Presión Mínima:1004.800 Hpa


Volver